createdAt,value
2023-03-08T00:01:22.304Z,1.52
2023-03-08T00:03:52.918Z,1.42
2023-03-08T00:06:19.656Z,1.38
2023-03-08T00:08:48.338Z,1.54
2023-03-08T00:11:15.822Z,1.04
2023-03-08T00:13:42.226Z,1.49
2023-03-08T00:16:12.455Z,1.51
2023-03-08T00:18:39.027Z,1.57
2023-03-08T00:21:08.293Z,1.40
2023-03-08T00:23:34.681Z,1.46
2023-03-08T00:26:01.198Z,1.42
2023-03-08T00:28:28.376Z,1.41
2023-03-08T00:30:56.892Z,1.39
2023-03-08T00:33:24.432Z,1.36
2023-03-08T00:35:59.479Z,1.34
2023-03-08T00:38:27.165Z,1.00
2023-03-08T00:40:54.317Z,1.27
2023-03-08T00:43:21.069Z,1.25
2023-03-08T00:45:48.785Z,1.10
2023-03-08T00:48:18.245Z,1.24
2023-03-08T00:50:44.828Z,1.11
2023-03-08T00:53:11.528Z,1.22
2023-03-08T00:55:38.098Z,0.95
2023-03-08T00:58:05.353Z,1.18
2023-03-08T01:00:31.823Z,1.17
2023-03-08T01:02:58.431Z,0.91
2023-03-08T01:05:24.889Z,1.12
2023-03-08T01:07:51.292Z,1.07
2023-03-08T01:10:17.782Z,0.97
2023-03-08T01:12:44.731Z,1.03
2023-03-08T01:15:11.332Z,0.99
2023-03-08T01:17:37.774Z,0.87
2023-03-08T01:20:05.045Z,0.89
2023-03-08T01:22:31.740Z,0.80
2023-03-08T01:24:58.114Z,0.79
2023-03-08T01:27:24.671Z,0.76
2023-03-08T01:29:51.106Z,0.73
2023-03-08T01:32:17.491Z,0.63
2023-03-08T01:34:43.929Z,0.46
2023-03-08T01:37:10.355Z,0.55
2023-03-08T01:39:36.710Z,0.52
2023-03-08T01:42:07.328Z,0.47
2023-03-08T01:44:57.243Z,0.41
2023-03-08T01:47:26.170Z,0.24
2023-03-08T01:49:55.010Z,0.28
2023-03-08T01:52:33.476Z,0.23
2023-03-08T01:55:03.472Z,0.17
2023-03-08T01:57:40.274Z,0.14
2023-03-08T02:00:09.873Z,0.11
2023-03-08T02:02:43.350Z,0.10
2023-03-08T02:05:11.151Z,0.00
2023-03-08T02:07:37.734Z,0.07
2023-03-08T02:10:04.378Z,0.05
2023-03-08T02:12:31.269Z,0.01
2023-03-08T02:14:58.418Z,0.10
2023-03-08T02:17:25.654Z,0.05
2023-03-08T02:19:57.550Z,0.17
2023-03-08T02:22:24.102Z,0.16
2023-03-08T02:24:50.678Z,-0.06
2023-03-08T02:27:24.053Z,0.28
2023-03-08T02:29:50.512Z,0.37
2023-03-08T02:32:17.237Z,0.41
2023-03-08T02:34:43.863Z,0.59
2023-03-08T02:37:10.323Z,0.73
2023-03-08T02:39:37.519Z,0.85
2023-03-08T02:42:04.097Z,0.95
2023-03-08T02:44:30.456Z,1.08
2023-03-08T02:46:56.842Z,1.17
2023-03-08T02:49:23.249Z,1.28
2023-03-08T02:51:49.627Z,1.28
2023-03-08T02:54:17.017Z,1.44
2023-03-08T02:56:43.581Z,1.31
2023-03-08T02:59:10.097Z,1.62
2023-03-08T03:01:37.238Z,1.51
2023-03-08T03:04:03.999Z,1.74
2023-03-08T03:06:30.505Z,1.81
2023-03-08T03:08:56.887Z,1.84
2023-03-08T03:11:23.573Z,1.80
2023-03-08T03:13:58.254Z,1.69
2023-03-08T03:16:26.008Z,1.88
2023-03-08T03:18:54.139Z,1.85
2023-03-08T03:21:20.883Z,1.88
2023-03-08T03:23:47.573Z,1.88
2023-03-08T03:26:20.192Z,1.87
2023-03-08T03:28:46.564Z,1.85
2023-03-08T03:31:19.817Z,1.85
2023-03-08T03:33:46.856Z,1.82
2023-03-08T03:36:15.762Z,1.83
2023-03-08T03:38:42.163Z,1.95
2023-03-08T03:41:12.023Z,1.94
2023-03-08T03:43:39.044Z,2.01
2023-03-08T03:46:08.661Z,2.03
2023-03-08T03:48:36.066Z,1.92
2023-03-08T03:51:03.709Z,2.03
2023-03-08T03:53:31.457Z,1.77
2023-03-08T03:56:05.339Z,2.05
2023-03-08T03:58:31.853Z,2.05
2023-03-08T04:00:58.256Z,2.01
2023-03-08T04:03:25.114Z,1.90
2023-03-08T04:05:51.532Z,1.90
2023-03-08T04:08:18.025Z,1.93
2023-03-08T04:10:44.423Z,2.11
2023-03-08T04:13:12.221Z,2.16
2023-03-08T04:15:38.615Z,2.24
2023-03-08T04:18:05.024Z,2.23
2023-03-08T04:20:31.364Z,1.92
2023-03-08T04:22:58.002Z,2.26
2023-03-08T04:25:24.344Z,2.31
2023-03-08T04:27:50.725Z,2.31
2023-03-08T04:30:17.264Z,2.33
2023-03-08T04:32:43.771Z,2.39
2023-03-08T04:35:10.454Z,2.38
2023-03-08T04:37:37.166Z,2.46
2023-03-08T04:40:07.043Z,2.48
2023-03-08T04:42:33.693Z,2.47
2023-03-08T04:45:00.060Z,2.52
2023-03-08T04:47:26.427Z,2.52
2023-03-08T04:49:52.788Z,2.54
2023-03-08T04:52:19.214Z,2.51
2023-03-08T04:54:45.583Z,2.46
2023-03-08T04:57:12.258Z,2.52
2023-03-08T04:59:38.687Z,2.48
2023-03-08T05:02:05.138Z,2.51
2023-03-08T05:04:31.580Z,2.54
2023-03-08T05:06:57.955Z,2.54
2023-03-08T05:09:24.363Z,2.54
2023-03-08T05:11:50.958Z,2.47
2023-03-08T05:14:17.396Z,2.52
2023-03-08T05:16:43.762Z,2.40
2023-03-08T05:19:10.769Z,2.38
2023-03-08T05:21:37.118Z,2.50
2023-03-08T05:24:03.553Z,2.32
2023-03-08T05:26:29.975Z,2.52
2023-03-08T05:28:56.682Z,2.54
2023-03-08T05:31:23.184Z,2.56
2023-03-08T05:33:51.662Z,2.55
2023-03-08T05:36:18.592Z,2.55
2023-03-08T05:38:45.301Z,2.56
2023-03-08T05:41:13.854Z,2.55
2023-03-08T05:43:40.412Z,2.59
2023-03-08T05:46:10.898Z,2.62
2023-03-08T05:48:37.639Z,2.61
2023-03-08T05:51:12.280Z,2.63
2023-03-08T05:53:39.231Z,2.64
2023-03-08T05:56:09.757Z,2.67
2023-03-08T05:58:36.645Z,2.61
2023-03-08T06:01:20.742Z,2.67
2023-03-08T06:03:49.812Z,2.66
2023-03-08T06:06:16.842Z,2.62
2023-03-08T06:08:43.568Z,2.55
2023-03-08T06:11:10.784Z,2.64
2023-03-08T06:13:37.405Z,2.61
2023-03-08T06:16:04.709Z,2.67
2023-03-08T06:18:31.817Z,2.48
2023-03-08T06:21:04.020Z,2.70
2023-03-08T06:23:31.532Z,2.68
2023-03-08T06:25:58.788Z,2.71
2023-03-08T06:28:26.195Z,2.71
2023-03-08T06:30:53.002Z,2.63
2023-03-08T06:33:21.699Z,2.62
2023-03-08T06:35:59.658Z,2.75
2023-03-08T06:38:29.572Z,2.77
2023-03-08T06:40:57.238Z,2.75
2023-03-08T06:43:23.749Z,2.74
2023-03-08T06:45:50.234Z,2.80
2023-03-08T06:48:16.905Z,2.84
2023-03-08T06:50:43.753Z,2.85
2023-03-08T06:53:10.712Z,2.81
2023-03-08T06:55:38.210Z,2.83
2023-03-08T06:58:05.168Z,2.94
2023-03-08T07:00:31.878Z,2.93
2023-03-08T07:02:58.646Z,2.98
2023-03-08T07:05:25.615Z,3.00
2023-03-08T07:07:52.381Z,2.94
2023-03-08T07:10:20.722Z,3.04
2023-03-08T07:12:50.363Z,3.04
2023-03-08T07:15:22.397Z,3.04
2023-03-08T07:17:50.850Z,3.09
2023-03-08T07:20:19.782Z,3.00
2023-03-08T07:22:46.941Z,3.00
2023-03-08T07:25:18.588Z,3.11
2023-03-08T07:27:45.397Z,3.11
2023-03-08T07:30:14.377Z,3.15
2023-03-08T07:32:44.548Z,3.13
2023-03-08T07:35:12.271Z,3.28
2023-03-08T07:37:38.971Z,3.23
2023-03-08T07:40:06.707Z,3.23
2023-03-08T07:42:33.081Z,3.09
2023-03-08T07:44:59.472Z,3.13
2023-03-08T07:47:25.830Z,3.24
2023-03-08T07:49:52.355Z,3.31
2023-03-08T07:52:18.709Z,3.18
2023-03-08T07:54:45.069Z,3.34
2023-03-08T07:57:15.545Z,3.43
2023-03-08T07:59:42.301Z,3.46
2023-03-08T08:02:14.966Z,3.56
2023-03-08T08:04:41.874Z,3.60
2023-03-08T08:07:12.512Z,3.65
2023-03-08T08:09:39.200Z,3.51
2023-03-08T08:12:06.266Z,3.61
2023-03-08T08:14:32.753Z,3.76
2023-03-08T08:16:59.312Z,3.82
2023-03-08T08:19:25.776Z,3.74
2023-03-08T08:21:52.187Z,3.90
2023-03-08T08:24:18.821Z,3.85
2023-03-08T08:26:45.228Z,3.93
2023-03-08T08:29:11.811Z,3.97
2023-03-08T08:31:38.329Z,3.93
2023-03-08T08:34:04.806Z,4.03
2023-03-08T08:36:31.362Z,4.05
2023-03-08T08:38:57.733Z,4.06
2023-03-08T08:41:24.492Z,4.09
2023-03-08T08:43:51.159Z,3.95
2023-03-08T08:46:18.315Z,4.02
2023-03-08T08:48:44.787Z,4.17
2023-03-08T08:51:13.213Z,4.22
2023-03-08T08:53:40.116Z,4.24
2023-03-08T08:56:25.584Z,4.24
2023-03-08T08:58:53.817Z,4.23
2023-03-08T09:01:23.435Z,4.13
2023-03-08T09:03:50.871Z,4.27
2023-03-08T09:06:19.857Z,4.26
2023-03-08T09:08:52.596Z,4.34
2023-03-08T09:11:19.020Z,4.34
2023-03-08T09:13:45.593Z,4.35
2023-03-08T09:16:26.884Z,4.46
2023-03-08T09:18:56.410Z,4.48
2023-03-08T09:21:23.897Z,4.34
2023-03-08T09:23:51.034Z,4.30
2023-03-08T09:26:18.720Z,4.54
2023-03-08T09:28:45.170Z,4.49
2023-03-08T09:31:17.064Z,4.50
2023-03-08T09:33:46.701Z,4.48
2023-03-08T09:36:13.811Z,4.43
2023-03-08T09:38:41.478Z,4.35
2023-03-08T09:41:26.008Z,4.32
2023-03-08T09:44:21.202Z,4.31
2023-03-08T09:46:59.661Z,4.27
2023-03-08T09:49:29.462Z,4.22
2023-03-08T09:52:11.007Z,4.27
2023-03-08T09:54:39.285Z,4.15
2023-03-08T09:57:12.356Z,4.33
2023-03-08T09:59:58.767Z,4.39
2023-03-08T10:02:52.040Z,4.48
2023-03-08T10:05:43.034Z,4.55
2023-03-08T10:08:15.992Z,4.56
2023-03-08T10:11:00.615Z,4.68
2023-03-08T10:13:31.579Z,4.75
2023-03-08T10:16:33.332Z,4.88
2023-03-08T10:19:25.260Z,4.98
2023-03-08T10:21:52.515Z,5.08
2023-03-08T10:24:26.970Z,5.19
2023-03-08T10:27:06.950Z,5.29
2023-03-08T10:29:33.343Z,5.36
2023-03-08T10:31:59.740Z,5.43
2023-03-08T10:34:31.720Z,5.56
2023-03-08T10:37:00.845Z,5.65
2023-03-08T10:39:27.954Z,5.74
2023-03-08T10:41:57.775Z,5.71
2023-03-08T10:44:42.514Z,5.86
2023-03-08T10:47:27.736Z,5.90
2023-03-08T10:50:16.391Z,5.88
2023-03-08T10:52:44.005Z,5.81
2023-03-08T10:55:19.654Z,5.84
2023-03-08T10:57:59.618Z,5.89
2023-03-08T11:00:42.876Z,5.94
2023-03-08T11:03:15.934Z,5.89
2023-03-08T11:05:58.037Z,6.00
2023-03-08T11:08:28.436Z,6.00
2023-03-08T11:11:24.372Z,6.15
2023-03-08T11:13:52.984Z,6.10
2023-03-08T11:16:45.292Z,6.24
2023-03-08T11:19:26.870Z,6.27
2023-03-08T11:22:03.744Z,6.30
2023-03-08T11:24:35.977Z,6.36
2023-03-08T11:27:15.412Z,6.42
2023-03-08T11:30:01.247Z,6.50
2023-03-08T11:32:46.223Z,6.65
2023-03-08T11:35:25.296Z,6.79
2023-03-08T11:38:06.086Z,6.95
2023-03-08T11:41:11.059Z,7.19
2023-03-08T11:43:59.876Z,7.30
2023-03-08T11:46:45.690Z,7.47
2023-03-08T11:49:43.668Z,7.59
2023-03-08T11:52:33.901Z,7.81
2023-03-08T11:55:22.447Z,8.17
2023-03-08T11:57:57.132Z,8.49
2023-03-08T12:00:46.609Z,9.05
2023-03-08T12:03:26.704Z,9.29
2023-03-08T12:06:00.857Z,9.80
2023-03-08T12:09:05.199Z,10.04
2023-03-08T12:11:44.683Z,10.02
2023-03-08T12:14:16.429Z,10.18
2023-03-08T12:17:04.217Z,10.23
2023-03-08T12:19:41.776Z,10.26
2023-03-08T12:22:28.030Z,10.42
2023-03-08T12:25:33.239Z,10.64
2023-03-08T12:28:05.807Z,10.83
2023-03-08T12:30:32.184Z,11.03
2023-03-08T12:33:02.233Z,11.08
2023-03-08T12:35:34.703Z,11.41
2023-03-08T12:38:01.108Z,11.62
2023-03-08T12:40:47.121Z,11.90
2023-03-08T12:43:20.788Z,12.06
2023-03-08T12:45:59.472Z,12.41
2023-03-08T12:48:47.206Z,12.59
2023-03-08T12:51:14.096Z,12.73
2023-03-08T12:53:49.524Z,12.77
2023-03-08T12:56:52.627Z,12.81
2023-03-08T12:59:18.885Z,12.56
2023-03-08T13:01:47.923Z,11.93
2023-03-08T13:04:41.406Z,12.17
2023-03-08T13:07:14.569Z,11.82
2023-03-08T13:09:40.891Z,11.58
2023-03-08T13:12:23.975Z,11.37
2023-03-08T13:15:11.406Z,11.09
2023-03-08T13:17:41.289Z,10.83
2023-03-08T13:20:42.315Z,10.64
2023-03-08T13:23:25.997Z,10.27
2023-03-08T13:26:20.163Z,9.99
2023-03-08T13:28:48.431Z,9.65
2023-03-08T13:31:22.057Z,9.55
2023-03-08T13:33:53.405Z,9.27
2023-03-08T13:36:25.042Z,9.01
